createdAt,value
2019-02-15T00:16:58.988Z,74.62
2019-02-15T00:19:43.286Z,73.95
2019-02-15T00:22:19.827Z,73.83
2019-02-15T00:24:56.751Z,74.35
2019-02-15T00:27:33.647Z,75.85
2019-02-15T00:30:13.069Z,73.78
2019-02-15T00:32:49.484Z,74.62
2019-02-15T00:35:26.274Z,72.78
2019-02-15T00:38:03.205Z,71.05
2019-02-15T00:40:40.157Z,70.92
2019-02-15T00:43:22.268Z,69.75
2019-02-15T00:46:13.486Z,66.77
2019-02-15T00:48:50.355Z,63.55
2019-02-15T00:51:45.865Z,62.05
2019-02-15T00:54:31.181Z,59.25
2019-02-15T00:57:25.616Z,58.73
2019-02-15T01:00:20.334Z,56.68
2019-02-15T01:03:13.798Z,55.98
2019-02-15T01:06:17.391Z,55.35
2019-02-15T01:09:15.505Z,56.13
2019-02-15T01:12:01.652Z,53.20
2019-02-15T01:14:38.625Z,50.85
2019-02-15T01:17:15.645Z,50.43
2019-02-15T01:19:52.382Z,49.03
2019-02-15T01:22:29.265Z,45.00
2019-02-15T01:25:06.023Z,45.00
2019-02-15T01:28:06.603Z,42.58
2019-02-15T01:31:04.470Z,41.33
2019-02-15T01:33:59.280Z,39.70
2019-02-15T01:37:06.876Z,38.30
2019-02-15T01:40:04.345Z,37.25
2019-02-15T01:43:01.317Z,36.28
2019-02-15T01:45:42.447Z,36.20
2019-02-15T01:48:19.142Z,36.93
2019-02-15T01:50:55.802Z,34.95
2019-02-15T01:53:32.937Z,37.28
2019-02-15T01:56:09.790Z,36.88
2019-02-15T01:58:47.038Z,36.58
2019-02-15T02:01:26.248Z,35.98
2019-02-15T02:04:02.866Z,36.77
2019-02-15T02:06:39.692Z,36.38
2019-02-15T02:09:16.491Z,36.15
2019-02-15T02:11:53.351Z,35.92
2019-02-15T02:14:30.684Z,35.17
2019-02-15T02:17:07.658Z,35.23
2019-02-15T02:19:44.505Z,34.05
2019-02-15T02:22:21.362Z,35.03
2019-02-15T02:25:19.503Z,35.33
2019-02-15T02:27:56.352Z,34.63
2019-02-15T02:30:33.234Z,34.15
2019-02-15T02:33:10.192Z,34.30
2019-02-15T02:35:47.036Z,33.10
2019-02-15T02:38:23.652Z,32.73
2019-02-15T02:41:00.423Z,34.05
2019-02-15T02:43:37.614Z,32.85
2019-02-15T02:46:16.858Z,33.10
2019-02-15T02:48:53.780Z,31.62
2019-02-15T02:51:31.434Z,32.98
2019-02-15T02:54:08.449Z,32.93
2019-02-15T02:56:44.955Z,32.58
2019-02-15T02:59:21.310Z,31.87
2019-02-15T03:01:58.012Z,32.45
2019-02-15T03:04:35.611Z,33.13
2019-02-15T03:07:11.874Z,32.80
2019-02-15T03:09:48.793Z,34.98
2019-02-15T03:12:25.254Z,34.67
2019-02-15T03:15:02.233Z,32.38
2019-02-15T03:17:38.603Z,32.05
2019-02-15T03:20:15.332Z,32.03
2019-02-15T03:22:53.125Z,32.67
2019-02-15T03:25:29.972Z,33.02
2019-02-15T03:28:09.079Z,32.03
2019-02-15T03:30:46.100Z,34.05
2019-02-15T03:33:22.145Z,34.08
2019-02-15T03:36:02.622Z,35.48
2019-02-15T03:38:56.190Z,36.23
2019-02-15T03:41:35.481Z,34.05
2019-02-15T03:44:21.397Z,33.55
2019-02-15T03:46:50.693Z,33.15
2019-02-15T03:49:28.148Z,32.50
2019-02-15T03:52:04.867Z,33.95
2019-02-15T03:54:41.182Z,33.48
2019-02-15T03:57:18.227Z,33.63
2019-02-15T03:59:55.194Z,32.83
2019-02-15T04:02:31.876Z,32.45
2019-02-15T04:05:09.005Z,32.53
2019-02-15T04:07:45.600Z,31.33
2019-02-15T04:10:22.453Z,32.10
2019-02-15T04:12:59.057Z,31.70
2019-02-15T04:15:37.041Z,32.30
2019-02-15T04:18:13.773Z,32.50
2019-02-15T04:20:50.680Z,33.08
2019-02-15T04:23:27.301Z,32.95
2019-02-15T04:26:04.018Z,31.75
2019-02-15T04:28:41.201Z,32.53
2019-02-15T04:31:18.490Z,32.23
2019-02-15T04:33:55.475Z,32.48
2019-02-15T04:36:32.724Z,32.50
2019-02-15T04:39:09.944Z,32.08
2019-02-15T04:41:46.653Z,32.55
2019-02-15T04:44:24.209Z,33.28
2019-02-15T04:47:01.064Z,33.70
2019-02-15T04:49:37.507Z,32.95
2019-02-15T04:52:14.551Z,32.70
2019-02-15T04:54:52.131Z,33.00
2019-02-15T04:57:29.424Z,32.98
2019-02-15T05:00:08.057Z,34.00
2019-02-15T05:02:50.272Z,33.78
2019-02-15T05:05:33.079Z,33.67
2019-02-15T05:08:11.291Z,34.00
2019-02-15T05:10:47.956Z,33.00
2019-02-15T05:13:24.909Z,34.27
2019-02-15T05:16:01.639Z,33.40
2019-02-15T05:18:41.666Z,33.80
2019-02-15T05:21:24.735Z,31.27
2019-02-15T05:24:12.873Z,34.13
2019-02-15T05:26:50.274Z,33.02
2019-02-15T05:29:28.205Z,33.60
2019-02-15T05:32:07.262Z,31.95
2019-02-15T05:34:45.466Z,32.20
2019-02-15T05:37:22.635Z,32.15
2019-02-15T05:39:59.613Z,33.45
2019-02-15T05:42:36.023Z,32.80
2019-02-15T05:45:13.019Z,32.15
2019-02-15T05:47:51.189Z,33.02
2019-02-15T05:50:28.306Z,33.40
2019-02-15T05:53:06.114Z,32.20
2019-02-15T05:55:42.681Z,32.48
2019-02-15T05:58:18.906Z,32.90
2019-02-15T06:00:56.006Z,34.95
2019-02-15T06:03:32.308Z,32.88
2019-02-15T06:06:09.793Z,33.50
2019-02-15T06:08:46.187Z,33.15
2019-02-15T06:11:22.809Z,32.40
2019-02-15T06:13:59.517Z,33.02
2019-02-15T06:16:36.824Z,32.75
2019-02-15T06:19:13.888Z,34.10
2019-02-15T06:21:50.819Z,33.78
2019-02-15T06:24:27.648Z,33.90
2019-02-15T06:27:04.381Z,33.40
2019-02-15T06:29:41.536Z,36.60
2019-02-15T06:32:18.101Z,32.67
2019-02-15T06:34:55.105Z,33.35
2019-02-15T06:37:31.785Z,33.30
2019-02-15T06:40:08.877Z,34.92
2019-02-15T06:42:45.240Z,34.73
2019-02-15T06:45:25.270Z,35.33
2019-02-15T06:48:00.926Z,33.92
2019-02-15T06:50:37.509Z,33.80
2019-02-15T06:53:14.433Z,34.18
2019-02-15T06:55:51.144Z,33.35
2019-02-15T06:58:27.669Z,33.42
2019-02-15T07:01:20.910Z,33.63
2019-02-15T07:04:18.887Z,34.45
2019-02-15T07:06:55.497Z,34.27
2019-02-15T07:09:32.414Z,33.50
2019-02-15T07:12:09.580Z,33.48
2019-02-15T07:14:46.299Z,33.20
2019-02-15T07:17:23.133Z,34.05
2019-02-15T07:20:00.070Z,33.83
2019-02-15T07:22:38.071Z,32.60
2019-02-15T07:25:16.103Z,33.78
2019-02-15T07:27:52.887Z,33.70
2019-02-15T07:30:29.826Z,34.25
2019-02-15T07:33:06.533Z,35.10
2019-02-15T07:35:44.032Z,33.38
2019-02-15T07:38:20.578Z,34.23
2019-02-15T07:40:57.730Z,32.67
2019-02-15T07:43:34.885Z,34.95
2019-02-15T07:46:12.215Z,34.13
2019-02-15T07:48:48.658Z,33.88
2019-02-15T07:51:25.444Z,33.70
2019-02-15T07:54:01.994Z,34.20
2019-02-15T07:56:39.280Z,34.10
2019-02-15T07:59:16.804Z,35.23
2019-02-15T08:02:01.579Z,33.55
2019-02-15T08:04:32.000Z,34.03
2019-02-15T08:07:08.898Z,33.23
2019-02-15T08:09:45.910Z,33.18
2019-02-15T08:12:22.456Z,34.13
2019-02-15T08:14:59.173Z,35.55
2019-02-15T08:17:36.772Z,33.55
2019-02-15T08:20:14.652Z,34.03
2019-02-15T08:22:51.334Z,35.25
2019-02-15T08:25:28.547Z,33.28
2019-02-15T08:28:05.854Z,34.98
2019-02-15T08:30:42.431Z,33.85
2019-02-15T08:33:20.388Z,33.30
2019-02-15T08:35:57.072Z,35.33
2019-02-15T08:38:33.482Z,35.43
2019-02-15T08:41:10.051Z,35.95
2019-02-15T08:43:47.064Z,35.00
2019-02-15T08:46:24.064Z,35.75
2019-02-15T08:49:01.719Z,36.30
2019-02-15T08:51:38.903Z,35.13
2019-02-15T08:54:15.444Z,34.63
2019-02-15T08:56:52.234Z,34.30
2019-02-15T08:59:29.806Z,34.70
2019-02-15T09:02:24.326Z,36.23
2019-02-15T09:05:02.374Z,34.48
2019-02-15T09:07:39.647Z,36.13
2019-02-15T09:10:17.428Z,35.75
2019-02-15T09:12:53.854Z,36.90
2019-02-15T09:15:30.718Z,36.08
2019-02-15T09:18:07.740Z,36.50
2019-02-15T09:20:44.637Z,36.23
2019-02-15T09:23:21.601Z,36.13
2019-02-15T09:25:57.877Z,36.55
2019-02-15T09:28:48.202Z,35.78
2019-02-15T09:31:25.320Z,37.88
2019-02-15T09:34:01.820Z,35.58
2019-02-15T09:36:39.417Z,36.93
2019-02-15T09:39:15.444Z,37.33
2019-02-15T09:41:52.448Z,37.40
2019-02-15T09:44:29.123Z,35.65
2019-02-15T09:47:05.407Z,36.90
2019-02-15T09:49:42.757Z,35.65
2019-02-15T09:52:19.780Z,37.00
2019-02-15T09:54:56.270Z,36.83
2019-02-15T09:57:33.396Z,36.75
2019-02-15T10:00:09.965Z,36.30
2019-02-15T10:02:46.751Z,38.65
2019-02-15T10:05:24.494Z,37.25
2019-02-15T10:08:01.304Z,38.05
2019-02-15T10:10:38.151Z,37.13
2019-02-15T10:13:14.749Z,38.67
2019-02-15T10:15:51.288Z,37.13
2019-02-15T10:18:29.023Z,37.20
2019-02-15T10:21:05.329Z,38.50
2019-02-15T10:23:42.341Z,38.23
2019-02-15T10:26:19.630Z,37.65
2019-02-15T10:28:57.366Z,39.33
2019-02-15T10:31:34.803Z,38.83
2019-02-15T10:34:10.836Z,38.08
2019-02-15T10:36:48.082Z,38.28
2019-02-15T10:39:24.483Z,37.38
2019-02-15T10:42:01.418Z,38.02
2019-02-15T10:44:38.389Z,38.58
2019-02-15T10:47:24.418Z,38.98
2019-02-15T10:49:53.147Z,39.85
2019-02-15T10:52:30.532Z,39.03
2019-02-15T10:55:07.463Z,38.50
2019-02-15T10:57:44.665Z,39.00
2019-02-15T11:00:22.361Z,38.63
2019-02-15T11:02:58.950Z,41.80
2019-02-15T11:05:35.794Z,44.23
2019-02-15T11:08:12.581Z,51.37
2019-02-15T11:10:49.362Z,49.75
2019-02-15T11:13:26.084Z,47.98
2019-02-15T11:16:02.923Z,46.65
2019-02-15T11:18:39.731Z,46.55
2019-02-15T11:21:16.106Z,43.58
2019-02-15T11:23:53.179Z,42.25
2019-02-15T11:26:29.930Z,45.30
2019-02-15T11:29:06.801Z,46.33
2019-02-15T11:31:43.699Z,43.40
2019-02-15T11:34:20.705Z,45.12
2019-02-15T11:36:57.379Z,46.65
2019-02-15T11:39:34.156Z,45.25
2019-02-15T11:42:10.978Z,46.02
2019-02-15T11:44:47.565Z,49.03
2019-02-15T11:47:24.676Z,53.17
2019-02-15T11:50:01.454Z,51.77
2019-02-15T11:52:39.758Z,46.90
2019-02-15T11:55:21.672Z,49.65
2019-02-15T11:57:58.932Z,50.73
2019-02-15T12:00:36.792Z,48.65
2019-02-15T12:03:15.239Z,47.45
2019-02-15T12:05:52.790Z,48.33
2019-02-15T12:08:29.739Z,53.20
2019-02-15T12:11:06.391Z,53.73
2019-02-15T12:13:43.249Z,54.38
2019-02-15T12:16:20.073Z,87.25
2019-02-15T12:18:56.676Z,166.90
2019-02-15T12:21:33.518Z,62.58
2019-02-15T12:24:10.142Z,55.70
2019-02-15T12:26:46.956Z,52.80
2019-02-15T12:29:23.863Z,53.85
2019-02-15T12:32:00.614Z,53.70
2019-02-15T12:34:37.420Z,51.18
2019-02-15T12:37:14.403Z,51.02
2019-02-15T12:39:51.413Z,49.25
2019-02-15T12:42:28.281Z,48.60
2019-02-15T12:45:04.775Z,49.80
2019-02-15T12:47:41.363Z,50.50
2019-02-15T12:50:19.294Z,48.48
2019-02-15T12:52:55.847Z,50.98
2019-02-15T12:55:32.895Z,51.15
2019-02-15T12:58:10.972Z,49.60
2019-02-15T13:00:48.074Z,50.23
2019-02-15T13:03:24.795Z,49.40
2019-02-15T13:06:02.070Z,48.95
2019-02-15T13:08:38.767Z,48.48
2019-02-15T13:11:15.629Z,48.60
2019-02-15T13:13:52.781Z,47.73
2019-02-15T13:16:30.500Z,47.38
2019-02-15T13:19:06.839Z,47.20
2019-02-15T13:21:43.338Z,48.85
2019-02-15T13:24:20.225Z,48.92
2019-02-15T13:26:56.697Z,48.52
2019-02-15T13:29:34.468Z,52.15
2019-02-15T13:32:11.530Z,51.13
2019-02-15T13:34:48.805Z,52.35
2019-02-15T13:37:25.556Z,52.53
2019-02-15T13:40:02.258Z,53.10
2019-02-15T13:42:39.491Z,54.35
2019-02-15T13:45:17.542Z,54.38
2019-02-15T13:47:54.927Z,52.27
2019-02-15T13:50:31.845Z,53.90
2019-02-15T13:53:09.204Z,53.87
2019-02-15T13:55:46.601Z,54.42
2019-02-15T13:58:23.297Z,58.05
2019-02-15T14:01:01.019Z,58.75
2019-02-15T14:03:38.876Z,58.52
2019-02-15T14:06:15.966Z,57.78
2019-02-15T14:08:53.340Z,61.35
2019-02-15T14:11:30.705Z,59.77
2019-02-15T14:14:07.379Z,55.67
2019-02-15T14:16:45.408Z,56.13
2019-02-15T14:19:22.270Z,53.20
2019-02-15T14:21:58.970Z,54.95
2019-02-15T14:24:36.167Z,56.70
2019-02-15T14:27:13.665Z,55.17
2019-02-15T14:29:50.091Z,53.60
2019-02-15T14:32:27.835Z,54.08
2019-02-15T14:35:04.814Z,53.58
2019-02-15T14:37:41.565Z,54.48
2019-02-15T14:40:18.707Z,55.12
2019-02-15T14:42:55.930Z,56.10
2019-02-15T14:45:32.958Z,59.30
2019-02-15T14:48:10.099Z,57.75
2019-02-15T14:50:46.938Z,56.85
2019-02-15T14:53:24.315Z,56.02
2019-02-15T14:56:01.499Z,57.38
2019-02-15T14:58:39.048Z,56.37
2019-02-15T15:01:16.167Z,54.88
2019-02-15T15:03:53.281Z,55.63
2019-02-15T15:06:30.041Z,56.80
2019-02-15T15:09:07.822Z,55.03
2019-02-15T15:11:45.600Z,55.35
2019-02-15T15:14:22.675Z,58.38
2019-02-15T15:16:59.491Z,57.35
2019-02-15T15:19:36.729Z,59.77
2019-02-15T15:22:13.973Z,58.65
2019-02-15T15:24:50.237Z,56.70
2019-02-15T15:27:27.820Z,57.30
2019-02-15T15:30:05.101Z,59.13
2019-02-15T15:32:41.964Z,59.35
2019-02-15T15:35:17.625Z,59.13
2019-02-15T15:38:05.272Z,58.75
2019-02-15T15:40:47.609Z,60.00
2019-02-15T15:43:24.905Z,61.48
2019-02-15T15:46:01.539Z,66.57
2019-02-15T15:48:38.438Z,64.95
2019-02-15T15:51:15.881Z,65.47
2019-02-15T15:53:52.788Z,71.90
2019-02-15T15:56:29.604Z,96.55
2019-02-15T15:59:07.651Z,90.38
2019-02-15T16:01:44.761Z,86.57
2019-02-15T16:04:22.008Z,93.78
2019-02-15T16:06:59.262Z,91.90
2019-02-15T16:09:36.274Z,109.63
2019-02-15T16:12:12.679Z,120.33
2019-02-15T16:14:49.745Z,170.20
2019-02-15T16:17:30.658Z,130.72
2019-02-15T16:20:07.532Z,116.88
2019-02-15T16:22:45.086Z,114.05
2019-02-15T16:25:22.467Z,102.67
2019-02-15T16:27:59.795Z,107.35
2019-02-15T16:30:37.143Z,130.93
2019-02-15T16:33:13.869Z,140.05
2019-02-15T16:35:51.527Z,140.05
2019-02-15T16:38:28.211Z,128.18
2019-02-15T16:41:05.443Z,125.15
2019-02-15T16:43:42.738Z,115.00
2019-02-15T16:46:20.146Z,119.95
2019-02-15T16:48:57.070Z,109.75
2019-02-15T16:51:33.937Z,110.63
2019-02-15T16:54:10.699Z,103.53
2019-02-15T16:56:47.449Z,95.95
2019-02-15T16:59:24.161Z,81.92
2019-02-15T17:02:01.141Z,73.92
2019-02-15T17:04:37.701Z,84.00
2019-02-15T17:07:14.608Z,78.75
2019-02-15T17:09:51.600Z,82.85
2019-02-15T17:12:28.590Z,77.70
2019-02-15T17:15:05.110Z,83.12
2019-02-15T17:17:42.177Z,78.35
2019-02-15T17:20:18.875Z,86.02
2019-02-15T17:22:55.093Z,97.72
2019-02-15T17:25:31.812Z,90.32
2019-02-15T17:28:08.614Z,78.50
2019-02-15T17:30:45.603Z,80.15
2019-02-15T17:33:22.169Z,75.78
2019-02-15T17:35:58.852Z,83.70
2019-02-15T17:38:35.641Z,82.67
2019-02-15T17:41:12.823Z,88.80
2019-02-15T17:43:51.420Z,88.03
2019-02-15T17:46:28.562Z,90.10
2019-02-15T17:49:05.082Z,98.33
2019-02-15T17:51:42.029Z,90.83
2019-02-15T17:54:18.683Z,93.85
2019-02-15T17:56:55.366Z,92.75
2019-02-15T17:59:32.087Z,78.42
2019-02-15T18:02:10.421Z,86.40
2019-02-15T18:04:47.257Z,88.47
2019-02-15T18:07:24.383Z,85.03
2019-02-15T18:10:01.211Z,87.25
2019-02-15T18:12:39.827Z,89.72
2019-02-15T18:15:16.786Z,88.97
2019-02-15T18:17:53.992Z,99.07
2019-02-15T18:20:30.796Z,151.70
2019-02-15T18:23:08.693Z,122.98
2019-02-15T18:25:46.186Z,106.97
2019-02-15T18:28:23.263Z,96.80
2019-02-15T18:31:00.014Z,97.55
2019-02-15T18:33:37.962Z,94.05
2019-02-15T18:36:14.933Z,81.60
2019-02-15T18:38:52.281Z,81.25
2019-02-15T18:41:29.166Z,80.30
2019-02-15T18:44:06.745Z,79.95
2019-02-15T18:46:43.659Z,77.82
2019-02-15T18:49:21.414Z,71.40
2019-02-15T18:51:58.493Z,69.65
2019-02-15T18:54:35.820Z,71.28
2019-02-15T18:57:12.847Z,71.90
2019-02-15T18:59:50.344Z,71.85
2019-02-15T19:02:27.454Z,72.35
2019-02-15T19:05:04.076Z,70.80
2019-02-15T19:07:42.573Z,72.85
2019-02-15T19:10:20.927Z,77.22
2019-02-15T19:12:57.604Z,73.00
2019-02-15T19:15:34.216Z,74.40
2019-02-15T19:18:11.464Z,72.90
2019-02-15T19:20:49.397Z,72.05
2019-02-15T19:23:26.177Z,75.75
2019-02-15T19:26:02.691Z,69.17
2019-02-15T19:28:39.691Z,69.92
2019-02-15T19:31:16.336Z,68.22
2019-02-15T19:33:53.276Z,69.22
2019-02-15T19:36:30.003Z,68.25
2019-02-15T19:39:08.272Z,69.72
2019-02-15T19:41:46.262Z,74.12
2019-02-15T19:44:23.414Z,71.72
2019-02-15T19:47:00.644Z,76.95
2019-02-15T19:49:39.104Z,75.72
2019-02-15T19:52:15.493Z,75.03
2019-02-15T19:54:51.757Z,71.95
2019-02-15T19:57:28.313Z,71.47
2019-02-15T20:00:04.717Z,74.53
2019-02-15T20:02:41.982Z,71.75
2019-02-15T20:05:18.735Z,73.33
2019-02-15T20:07:55.441Z,72.50
2019-02-15T20:10:32.696Z,72.32
2019-02-15T20:13:09.259Z,71.92
2019-02-15T20:15:46.020Z,71.72
2019-02-15T20:18:22.699Z,71.55
2019-02-15T20:20:59.672Z,73.85
2019-02-15T20:23:36.316Z,74.00
2019-02-15T20:26:13.183Z,75.28
2019-02-15T20:28:49.890Z,75.67
2019-02-15T20:31:26.644Z,75.55
2019-02-15T20:34:03.686Z,76.90
2019-02-15T20:36:39.943Z,74.92
2019-02-15T20:39:16.928Z,73.92
2019-02-15T20:41:53.762Z,74.30
2019-02-15T20:44:31.326Z,76.53
2019-02-15T20:47:07.855Z,75.15
2019-02-15T20:49:44.765Z,77.95
2019-02-15T20:52:21.525Z,78.95
2019-02-15T20:54:58.166Z,81.85
2019-02-15T20:57:35.004Z,81.78
2019-02-15T21:00:13.850Z,79.77
2019-02-15T21:02:50.888Z,79.70
2019-02-15T21:05:27.897Z,80.55
2019-02-15T21:08:05.129Z,78.28
2019-02-15T21:10:41.817Z,81.22
2019-02-15T21:13:20.721Z,80.42
2019-02-15T21:15:57.020Z,79.97
2019-02-15T21:18:33.697Z,80.55
2019-02-15T21:21:10.431Z,78.78
2019-02-15T21:23:47.417Z,80.65
2019-02-15T21:26:24.176Z,79.82
2019-02-15T21:29:01.321Z,83.90
2019-02-15T21:31:37.720Z,82.47
2019-02-15T21:34:14.612Z,80.97
2019-02-15T21:36:51.640Z,80.38
2019-02-15T21:39:29.590Z,83.95
2019-02-15T21:42:06.368Z,85.72
2019-02-15T21:44:44.040Z,87.50
2019-02-15T21:47:21.078Z,84.13
2019-02-15T21:49:59.078Z,82.60
2019-02-15T21:52:43.773Z,80.95
2019-02-15T21:55:14.397Z,79.17
2019-02-15T21:58:00.767Z,82.08
2019-02-15T22:00:29.927Z,81.15
2019-02-15T22:03:06.606Z,80.17
2019-02-15T22:05:43.793Z,80.62
2019-02-15T22:08:21.093Z,80.55
2019-02-15T22:10:57.853Z,80.47
2019-02-15T22:13:34.947Z,78.45
2019-02-15T22:16:11.851Z,80.05
2019-02-15T22:18:49.110Z,80.12
2019-02-15T22:21:25.988Z,79.03
2019-02-15T22:24:03.460Z,79.58
2019-02-15T22:26:39.986Z,80.25
2019-02-15T22:29:17.186Z,80.40
2019-02-15T22:31:53.934Z,80.28
2019-02-15T22:34:31.422Z,84.45
2019-02-15T22:37:07.907Z,86.57
2019-02-15T22:39:45.776Z,84.20
2019-02-15T22:42:22.288Z,80.60
2019-02-15T22:45:00.303Z,83.40
2019-02-15T22:47:36.853Z,83.25
2019-02-15T22:50:13.791Z,86.28
2019-02-15T22:52:50.173Z,87.88
2019-02-15T22:55:27.248Z,85.67
2019-02-15T22:58:04.672Z,84.80
2019-02-15T23:00:53.174Z,85.03
2019-02-15T23:03:31.248Z,88.33
2019-02-15T23:06:07.749Z,86.25
2019-02-15T23:08:44.274Z,85.22
2019-02-15T23:11:21.266Z,86.00
2019-02-15T23:13:57.906Z,84.72
2019-02-15T23:16:35.200Z,83.65
2019-02-15T23:19:11.602Z,85.05
2019-02-15T23:21:48.676Z,84.65
2019-02-15T23:24:25.556Z,87.70
2019-02-15T23:27:02.782Z,85.05
2019-02-15T23:29:39.660Z,91.92
2019-02-15T23:32:16.854Z,92.67
2019-02-15T23:34:54.735Z,99.13
2019-02-15T23:37:31.491Z,151.00
2019-02-15T23:40:08.090Z,351.48
2019-02-15T23:42:44.855Z,271.05
2019-02-15T23:45:22.826Z,240.97
2019-02-15T23:47:59.829Z,195.53
2019-02-15T23:50:36.850Z,191.75
2019-02-15T23:53:14.059Z,169.28
2019-02-15T23:55:50.454Z,178.10
2019-02-15T23:58:27.377Z,161.60
